createdAt,value
2018-02-21T00:00:46.594Z,53.40
2018-02-21T00:03:13.283Z,53.30
2018-02-21T00:05:39.925Z,53.40
2018-02-21T00:08:06.566Z,53.30
2018-02-21T00:10:33.195Z,53.30
2018-02-21T00:12:59.830Z,53.30
2018-02-21T00:15:26.452Z,53.30
2018-02-21T00:17:56.540Z,53.40
2018-02-21T00:20:23.179Z,53.30
2018-02-21T00:22:49.818Z,53.30
2018-02-21T00:25:16.449Z,53.30
2018-02-21T00:27:43.106Z,53.30
2018-02-21T00:30:09.769Z,53.30
2018-02-21T00:32:36.460Z,53.30
2018-02-21T00:35:03.122Z,53.30
2018-02-21T00:37:29.837Z,53.30
2018-02-21T00:39:56.516Z,53.20
2018-02-21T00:42:23.178Z,53.20
2018-02-21T00:45:02.141Z,53.20
2018-02-21T00:47:28.937Z,53.20
2018-02-21T00:49:55.578Z,53.20
2018-02-21T00:52:22.201Z,53.20
2018-02-21T00:54:50.724Z,53.20
2018-02-21T00:57:17.350Z,53.20
2018-02-21T00:59:56.203Z,53.10
2018-02-21T01:02:26.527Z,53.20
2018-02-21T01:04:53.178Z,53.10
2018-02-21T01:07:20.598Z,53.10
2018-02-21T01:09:47.260Z,53.10
2018-02-21T01:12:13.885Z,53.10
2018-02-21T01:14:44.638Z,53.10
2018-02-21T01:17:14.733Z,53.10
2018-02-21T01:19:41.389Z,53.10
2018-02-21T01:22:08.637Z,53.10
2018-02-21T01:24:35.274Z,53.10
2018-02-21T01:27:01.926Z,53.10
2018-02-21T01:29:28.857Z,53.20
2018-02-21T01:31:55.512Z,53.10
2018-02-21T01:34:22.134Z,53.20
2018-02-21T01:36:48.867Z,53.10
2018-02-21T01:39:15.484Z,53.10
2018-02-21T01:41:44.599Z,53.10
2018-02-21T01:44:11.250Z,53.10
2018-02-21T01:46:38.732Z,53.10
2018-02-21T01:49:08.593Z,53.10
2018-02-21T01:51:44.150Z,53.10
2018-02-21T01:54:10.876Z,53.10
2018-02-21T01:56:44.270Z,53.00
2018-02-21T01:59:10.897Z,53.10
2018-02-21T02:01:37.569Z,53.00
2018-02-21T02:04:04.189Z,53.10
2018-02-21T02:06:30.809Z,53.10
2018-02-21T02:08:57.911Z,53.00
2018-02-21T02:11:32.181Z,53.00
2018-02-21T02:14:02.658Z,53.00
2018-02-21T02:16:29.705Z,52.90
2018-02-21T02:18:56.343Z,52.90
2018-02-21T02:21:22.961Z,52.90
2018-02-21T02:23:49.605Z,52.90
2018-02-21T02:26:16.237Z,53.00
2018-02-21T02:28:44.693Z,53.00
2018-02-21T02:31:11.330Z,53.00
2018-02-21T02:33:37.980Z,53.00
2018-02-21T02:36:14.214Z,52.90
2018-02-21T02:38:40.853Z,52.90
2018-02-21T02:41:07.486Z,53.00
2018-02-21T02:43:34.129Z,52.90
2018-02-21T02:46:00.762Z,53.00
2018-02-21T02:48:27.386Z,52.90
2018-02-21T02:50:54.041Z,53.00
2018-02-21T02:53:20.665Z,52.90
2018-02-21T02:55:47.350Z,52.90
2018-02-21T02:58:14.028Z,52.90
2018-02-21T03:00:40.670Z,52.90
2018-02-21T03:03:07.294Z,52.90
2018-02-21T03:05:38.785Z,52.90
2018-02-21T03:08:05.403Z,52.90
2018-02-21T03:10:32.091Z,53.00
2018-02-21T03:12:58.717Z,52.90
2018-02-21T03:15:25.611Z,52.90
2018-02-21T03:17:52.229Z,52.90
2018-02-21T03:20:26.190Z,52.90
2018-02-21T03:22:52.809Z,52.90
2018-02-21T03:25:19.466Z,52.90
2018-02-21T03:27:46.129Z,52.90
2018-02-21T03:30:12.759Z,52.90
2018-02-21T03:32:39.411Z,52.90
2018-02-21T03:35:14.392Z,52.90
2018-02-21T03:37:41.029Z,52.90
2018-02-21T03:40:07.736Z,52.90
2018-02-21T03:42:34.354Z,52.90
2018-02-21T03:45:02.674Z,52.90
2018-02-21T03:47:32.706Z,52.90
2018-02-21T03:49:59.323Z,53.00
2018-02-21T03:52:25.976Z,52.90
2018-02-21T03:54:52.618Z,53.00
2018-02-21T03:57:19.266Z,52.90
2018-02-21T03:59:50.785Z,52.90
2018-02-21T04:02:17.442Z,52.90
2018-02-21T04:04:44.060Z,53.00
2018-02-21T04:07:10.698Z,53.00
2018-02-21T04:09:37.368Z,52.90
2018-02-21T04:12:08.741Z,53.00
2018-02-21T04:14:38.701Z,52.90
2018-02-21T04:17:05.339Z,53.00
2018-02-21T04:19:32.072Z,53.00
2018-02-21T04:21:58.711Z,53.00
2018-02-21T04:24:25.350Z,53.00
2018-02-21T04:26:56.757Z,53.00
2018-02-21T04:29:26.823Z,53.00
2018-02-21T04:31:56.764Z,53.00
2018-02-21T04:34:23.402Z,53.00
2018-02-21T04:36:50.022Z,53.00
2018-02-21T04:39:26.265Z,53.00
2018-02-21T04:41:56.795Z,53.00
2018-02-21T04:44:26.753Z,53.10
2018-02-21T04:46:53.374Z,53.00
2018-02-21T04:49:32.226Z,53.00
2018-02-21T04:51:58.894Z,53.10
2018-02-21T04:54:40.439Z,53.00
2018-02-21T04:57:27.726Z,53.10
2018-02-21T04:59:54.467Z,53.10
2018-02-21T05:04:59.597Z,53.10
2018-02-21T05:07:26.254Z,53.10
2018-02-21T05:10:02.337Z,53.20
2018-02-21T05:12:28.957Z,53.10
2018-02-21T05:14:56.809Z,53.10
2018-02-21T05:17:23.464Z,53.20
2018-02-21T05:19:50.701Z,53.20
2018-02-21T05:22:17.338Z,53.20
2018-02-21T05:24:44.024Z,53.20
2018-02-21T05:27:10.653Z,53.20
2018-02-21T05:29:38.718Z,53.20
2018-02-21T05:32:05.343Z,53.20
2018-02-21T05:34:31.962Z,53.20
2018-02-21T05:36:58.607Z,53.20
2018-02-21T05:39:26.846Z,53.20
2018-02-21T05:41:53.481Z,53.20
2018-02-21T05:44:20.122Z,53.20
2018-02-21T05:46:46.774Z,53.20
2018-02-21T05:49:13.397Z,53.20
2018-02-21T05:51:40.050Z,53.20
2018-02-21T05:54:08.730Z,53.20
2018-02-21T05:56:38.848Z,53.20
2018-02-21T05:59:05.461Z,53.20
2018-02-21T06:01:32.161Z,53.20
2018-02-21T06:03:58.798Z,53.20
2018-02-21T06:06:25.443Z,53.20
2018-02-21T06:08:52.075Z,53.20
2018-02-21T06:11:18.757Z,53.20
2018-02-21T06:13:45.401Z,53.20
2018-02-21T06:16:12.150Z,53.20
2018-02-21T06:21:17.529Z,53.10
2018-02-21T06:23:44.142Z,53.10
2018-02-21T06:26:10.758Z,53.10
2018-02-21T06:28:37.460Z,53.20
2018-02-21T06:31:08.745Z,53.10
2018-02-21T06:33:35.402Z,53.10
2018-02-21T06:36:02.834Z,53.10
2018-02-21T06:38:29.496Z,53.10
2018-02-21T06:40:56.122Z,53.10
2018-02-21T06:46:01.750Z,53.10
2018-02-21T06:48:32.842Z,53.10
2018-02-21T06:50:59.461Z,53.10
2018-02-21T06:53:26.106Z,53.10
2018-02-21T06:55:52.751Z,53.20
2018-02-21T06:58:20.815Z,53.10
2018-02-21T07:00:47.433Z,53.10
2018-02-21T07:03:14.069Z,53.10
2018-02-21T07:05:40.703Z,53.20
2018-02-21T07:08:07.360Z,53.10
2018-02-21T07:10:33.992Z,53.10
2018-02-21T07:13:00.618Z,53.00
2018-02-21T07:15:27.392Z,53.00
2018-02-21T07:17:53.958Z,53.10
2018-02-21T07:20:20.597Z,53.00
2018-02-21T07:22:47.650Z,53.10
2018-02-21T07:25:14.842Z,53.10
2018-02-21T07:27:44.704Z,53.00
2018-02-21T07:30:11.737Z,53.00
2018-02-21T07:32:38.468Z,53.00
2018-02-21T07:35:14.484Z,53.10
2018-02-21T07:37:41.111Z,53.10
2018-02-21T07:40:07.785Z,53.10
2018-02-21T07:42:34.489Z,53.10
2018-02-21T07:45:01.139Z,53.00
2018-02-21T07:47:27.770Z,53.10
2018-02-21T07:49:54.413Z,53.00
2018-02-21T07:52:21.154Z,53.10
2018-02-21T07:54:50.852Z,53.00
2018-02-21T07:59:56.620Z,53.10
2018-02-21T08:02:23.303Z,53.00
2018-02-21T08:04:56.450Z,53.00
2018-02-21T08:07:23.102Z,53.00
2018-02-21T08:09:49.766Z,53.00
2018-02-21T08:12:16.422Z,53.00
2018-02-21T08:14:43.050Z,53.00
2018-02-21T08:17:09.690Z,53.10
2018-02-21T08:19:36.317Z,53.00
2018-02-21T08:22:03.044Z,53.10
2018-02-21T08:24:29.670Z,53.00
2018-02-21T08:26:56.442Z,53.10
2018-02-21T08:29:23.066Z,53.10
2018-02-21T08:31:49.706Z,53.10
2018-02-21T08:36:55.691Z,53.10
2018-02-21T08:39:22.318Z,53.10
2018-02-21T08:41:50.765Z,53.10
2018-02-21T08:44:17.385Z,53.20
2018-02-21T08:46:44.048Z,53.10
2018-02-21T08:49:14.758Z,53.20
2018-02-21T08:51:41.426Z,53.10
2018-02-21T08:54:08.857Z,53.20
2018-02-21T08:56:35.477Z,53.20
2018-02-21T08:59:02.172Z,53.20
2018-02-21T09:01:28.798Z,53.20
2018-02-21T09:03:55.454Z,53.20
2018-02-21T09:06:22.075Z,53.20
2018-02-21T09:08:48.922Z,53.30
2018-02-21T09:11:26.365Z,53.20
2018-02-21T09:13:53.009Z,53.20
2018-02-21T09:16:19.633Z,53.30
2018-02-21T09:18:46.289Z,53.30
2018-02-21T09:21:12.912Z,53.30
2018-02-21T09:26:18.518Z,53.30
2018-02-21T09:28:45.163Z,53.30
2018-02-21T09:31:14.814Z,53.30
2018-02-21T09:33:41.470Z,53.40
2018-02-21T09:36:08.910Z,53.30
2018-02-21T09:38:35.550Z,53.30
2018-02-21T09:41:02.183Z,53.40
2018-02-21T09:43:28.844Z,53.40
2018-02-21T09:45:55.470Z,53.40
2018-02-21T09:48:26.818Z,53.40
2018-02-21T09:51:02.504Z,53.40
2018-02-21T09:53:29.135Z,53.40
2018-02-21T09:56:02.475Z,53.40
2018-02-21T09:58:30.471Z,53.40
2018-02-21T10:00:57.428Z,53.50
2018-02-21T10:03:24.054Z,53.50
2018-02-21T10:05:50.690Z,53.50
2018-02-21T10:08:17.321Z,53.50
2018-02-21T10:10:44.014Z,53.50
2018-02-21T10:13:11.035Z,53.50
2018-02-21T10:15:37.730Z,53.50
2018-02-21T10:18:04.506Z,53.50
2018-02-21T10:20:31.154Z,53.50
2018-02-21T10:22:57.782Z,53.60
2018-02-21T10:25:32.377Z,53.60
2018-02-21T10:27:58.991Z,53.60
2018-02-21T10:30:25.638Z,53.60
2018-02-21T10:32:52.268Z,53.60
2018-02-21T10:35:18.910Z,53.60
2018-02-21T10:37:45.595Z,53.60
2018-02-21T10:40:12.217Z,53.60
2018-02-21T10:42:38.862Z,53.60
2018-02-21T10:45:08.809Z,53.60
2018-02-21T10:47:38.866Z,53.60
2018-02-21T10:50:08.915Z,53.60
2018-02-21T10:52:35.619Z,53.60
2018-02-21T10:55:02.305Z,53.60
2018-02-21T10:57:28.956Z,53.70
2018-02-21T10:59:55.576Z,53.70
2018-02-21T11:02:26.904Z,53.70
2018-02-21T11:04:53.541Z,53.70
2018-02-21T11:07:20.186Z,53.70
2018-02-21T11:09:46.838Z,53.70
2018-02-21T11:12:13.492Z,53.70
2018-02-21T11:14:50.540Z,53.70
2018-02-21T11:17:17.186Z,53.80
2018-02-21T11:19:43.810Z,53.70
2018-02-21T11:22:10.434Z,53.80
2018-02-21T11:24:37.079Z,53.70
2018-02-21T11:27:09.036Z,53.80
2018-02-21T11:29:35.725Z,53.80
2018-02-21T11:32:02.939Z,53.80
2018-02-21T11:34:29.578Z,53.70
2018-02-21T11:39:35.346Z,53.80
2018-02-21T11:42:01.978Z,53.80
2018-02-21T11:44:28.616Z,53.80
2018-02-21T11:46:56.829Z,53.80
2018-02-21T11:49:23.504Z,53.80
2018-02-21T11:51:50.181Z,53.80
2018-02-21T11:54:26.586Z,53.80
2018-02-21T11:56:53.218Z,53.90
2018-02-21T11:59:19.910Z,53.90
2018-02-21T12:01:50.834Z,53.80
2018-02-21T12:04:20.921Z,53.80
2018-02-21T12:06:47.541Z,53.90
2018-02-21T12:09:14.222Z,53.90
2018-02-21T12:11:40.841Z,53.90
2018-02-21T12:14:07.521Z,53.80
2018-02-21T12:16:38.997Z,53.90
2018-02-21T12:19:05.664Z,53.90
2018-02-21T12:21:32.314Z,53.90
2018-02-21T12:23:58.949Z,53.90
2018-02-21T12:26:25.569Z,53.90
2018-02-21T12:28:56.933Z,53.90
2018-02-21T12:31:23.597Z,53.90
2018-02-21T12:33:50.222Z,53.90
2018-02-21T12:36:20.926Z,53.90
2018-02-21T12:38:53.245Z,53.90
2018-02-21T12:41:26.145Z,53.90
2018-02-21T12:43:52.767Z,53.90
2018-02-21T12:46:19.406Z,53.90
2018-02-21T12:48:46.031Z,53.90
2018-02-21T12:51:12.669Z,53.90
2018-02-21T12:53:39.329Z,54.00
2018-02-21T12:56:05.976Z,54.00
2018-02-21T12:58:32.929Z,54.00
2018-02-21T13:00:59.617Z,54.00
2018-02-21T13:03:38.486Z,54.00
2018-02-21T13:06:05.141Z,54.00
2018-02-21T13:08:31.778Z,54.00
2018-02-21T13:10:58.422Z,54.00
2018-02-21T13:13:26.881Z,54.00
2018-02-21T13:15:53.541Z,54.00
2018-02-21T13:18:20.216Z,54.10
2018-02-21T13:20:46.840Z,54.10
2018-02-21T13:23:13.498Z,54.10
2018-02-21T13:25:45.051Z,54.00
2018-02-21T13:28:11.722Z,54.10
2018-02-21T13:30:38.462Z,54.10
2018-02-21T13:33:05.098Z,54.10
2018-02-21T13:35:31.725Z,54.10
2018-02-21T13:37:58.382Z,54.10
2018-02-21T13:40:25.026Z,54.10
2018-02-21T13:42:51.671Z,54.10
2018-02-21T13:45:18.295Z,54.10
2018-02-21T13:47:44.928Z,54.10
2018-02-21T13:50:11.548Z,54.10
2018-02-21T13:52:38.203Z,54.10
2018-02-21T13:55:04.823Z,54.10
2018-02-21T13:57:31.473Z,54.10
2018-02-21T13:59:58.105Z,54.20
2018-02-21T14:02:24.750Z,54.10
2018-02-21T14:04:51.375Z,54.10
2018-02-21T14:07:19.044Z,54.10
2018-02-21T14:09:45.677Z,54.10
2018-02-21T14:12:12.375Z,54.10
2018-02-21T14:14:39.214Z,54.20
2018-02-21T14:17:09.104Z,54.10
2018-02-21T14:19:35.746Z,54.20
2018-02-21T14:22:02.396Z,54.20
2018-02-21T14:24:29.048Z,54.20
2018-02-21T14:26:55.684Z,54.20
2018-02-21T14:29:22.506Z,54.20
2018-02-21T14:31:50.946Z,54.20
2018-02-21T14:34:21.091Z,54.10
2018-02-21T14:36:56.709Z,54.10
2018-02-21T14:39:23.389Z,54.20
2018-02-21T14:41:50.018Z,54.20
2018-02-21T14:44:16.655Z,54.10
2018-02-21T14:49:22.386Z,54.10
2018-02-21T14:51:49.018Z,54.10
2018-02-21T14:54:15.662Z,54.10
2018-02-21T14:56:42.348Z,54.10
2018-02-21T14:59:09.006Z,54.20
2018-02-21T15:01:35.641Z,54.10
2018-02-21T15:04:02.299Z,54.10
2018-02-21T15:06:29.044Z,54.10
2018-02-21T15:08:57.098Z,54.20
2018-02-21T15:11:23.762Z,54.10
2018-02-21T15:13:56.529Z,54.10
2018-02-21T15:16:25.125Z,54.10
2018-02-21T15:18:51.917Z,54.10
2018-02-21T15:21:18.562Z,54.10
2018-02-21T15:23:45.193Z,54.10
2018-02-21T15:26:15.062Z,54.10
2018-02-21T15:28:44.966Z,54.10
2018-02-21T15:31:11.616Z,54.10
2018-02-21T15:33:38.274Z,54.10
2018-02-21T15:36:04.909Z,54.10
2018-02-21T15:38:31.562Z,54.10
2018-02-21T15:40:58.221Z,54.10
2018-02-21T15:43:24.853Z,54.10
2018-02-21T15:45:57.159Z,54.10
2018-02-21T15:48:23.816Z,54.20
2018-02-21T15:50:50.443Z,54.10
2018-02-21T15:53:17.155Z,54.10
2018-02-21T15:55:43.894Z,54.10
2018-02-21T15:58:15.078Z,54.10
2018-02-21T16:00:41.705Z,54.20
2018-02-21T16:03:08.358Z,54.20
2018-02-21T16:05:35.006Z,54.20
2018-02-21T16:08:03.030Z,54.10
2018-02-21T16:10:29.661Z,54.10
2018-02-21T16:12:56.379Z,54.10
2018-02-21T16:15:22.998Z,54.10
2018-02-21T16:17:49.661Z,54.10
2018-02-21T16:20:16.287Z,54.20
2018-02-21T16:22:42.931Z,54.10
2018-02-21T16:25:15.003Z,54.10
2018-02-21T16:27:41.649Z,54.10
2018-02-21T16:30:08.295Z,54.20
2018-02-21T16:32:39.005Z,54.20
2018-02-21T16:35:05.658Z,54.10
2018-02-21T16:37:38.682Z,54.10
2018-02-21T16:40:05.320Z,54.10
2018-02-21T16:42:31.978Z,54.10
2018-02-21T16:44:58.621Z,54.10
2018-02-21T16:47:25.256Z,54.10
2018-02-21T16:49:51.911Z,54.10
2018-02-21T16:52:18.534Z,54.10
2018-02-21T16:54:56.757Z,54.10
2018-02-21T16:57:23.389Z,54.10
2018-02-21T16:59:50.055Z,54.10
2018-02-21T17:02:16.686Z,54.10
2018-02-21T17:04:43.337Z,54.10
2018-02-21T17:07:09.954Z,54.10
2018-02-21T17:09:36.613Z,54.10
2018-02-21T17:12:14.688Z,54.10
2018-02-21T17:14:41.348Z,54.10
2018-02-21T17:17:07.977Z,54.10
2018-02-21T17:19:34.625Z,54.10
2018-02-21T17:22:01.283Z,54.10
2018-02-21T17:24:27.949Z,54.10
2018-02-21T17:26:54.802Z,54.10
2018-02-21T17:29:21.433Z,54.10
2018-02-21T17:31:48.109Z,54.10
2018-02-21T17:34:14.823Z,54.10
2018-02-21T17:36:41.463Z,54.10
2018-02-21T17:39:20.804Z,54.10
2018-02-21T17:41:47.474Z,54.10
2018-02-21T17:44:14.094Z,54.00
2018-02-21T17:46:40.743Z,54.00
2018-02-21T17:49:07.363Z,54.00
2018-02-21T17:51:34.030Z,54.00
2018-02-21T17:54:08.734Z,54.00
2018-02-21T17:56:35.386Z,54.00
2018-02-21T17:59:02.019Z,54.00
2018-02-21T18:01:28.661Z,54.00
2018-02-21T18:03:55.281Z,54.00
2018-02-21T18:06:21.904Z,54.00
2018-02-21T18:08:48.538Z,54.00
2018-02-21T18:11:15.315Z,53.90
2018-02-21T18:13:42.018Z,53.90
2018-02-21T18:16:08.745Z,53.90
2018-02-21T18:18:35.389Z,53.90
2018-02-21T18:21:03.044Z,54.00
2018-02-21T18:23:29.690Z,53.90
2018-02-21T18:25:56.321Z,53.90
2018-02-21T18:31:02.078Z,53.90
2018-02-21T18:33:28.721Z,53.80
2018-02-21T18:35:55.337Z,53.90
2018-02-21T18:38:22.437Z,53.90
2018-02-21T18:40:49.077Z,53.90
2018-02-21T18:43:15.722Z,53.90
2018-02-21T18:45:42.392Z,53.90
2018-02-21T18:48:09.032Z,53.90
2018-02-21T18:50:39.073Z,53.90
2018-02-21T18:53:05.713Z,53.90
2018-02-21T18:55:38.703Z,53.90
2018-02-21T18:58:05.356Z,53.90
2018-02-21T19:00:31.978Z,53.90
2018-02-21T19:02:58.609Z,53.90
2018-02-21T19:05:25.249Z,53.80
2018-02-21T19:07:51.874Z,53.90
2018-02-21T19:10:18.625Z,53.80
2018-02-21T19:12:45.352Z,53.80
2018-02-21T19:15:12.006Z,53.90
2018-02-21T19:17:38.658Z,53.90
2018-02-21T19:20:09.180Z,53.80
2018-02-21T19:22:35.800Z,53.80
2018-02-21T19:25:03.397Z,53.80
2018-02-21T19:27:30.036Z,53.80
2018-02-21T19:29:56.679Z,53.80
2018-02-21T19:32:23.362Z,53.80
2018-02-21T19:34:50.058Z,53.70
2018-02-21T19:37:16.689Z,53.70
2018-02-21T19:39:45.134Z,53.80
2018-02-21T19:42:15.130Z,53.70
2018-02-21T19:44:41.772Z,53.80
2018-02-21T19:47:08.520Z,53.80
2018-02-21T19:49:39.293Z,53.70
2018-02-21T19:52:05.971Z,53.60
2018-02-21T19:54:32.634Z,53.70
2018-02-21T19:56:59.268Z,53.70
2018-02-21T19:59:25.891Z,53.70
2018-02-21T20:01:52.645Z,53.70
2018-02-21T20:04:19.301Z,53.70
2018-02-21T20:06:45.946Z,53.70
2018-02-21T20:09:12.570Z,53.80
2018-02-21T20:11:39.209Z,53.60
2018-02-21T20:14:05.830Z,53.60
2018-02-21T20:16:32.523Z,53.70
2018-02-21T20:18:59.205Z,53.70
2018-02-21T20:21:25.933Z,53.60
2018-02-21T20:23:57.275Z,53.70
2018-02-21T20:26:32.713Z,53.60
2018-02-21T20:28:59.352Z,53.50
2018-02-21T20:31:25.971Z,53.60
2018-02-21T20:33:57.158Z,53.60
2018-02-21T20:36:23.783Z,53.60
2018-02-21T20:38:50.427Z,53.60
2018-02-21T20:41:21.136Z,53.60
2018-02-21T20:43:47.795Z,53.60
2018-02-21T20:46:26.706Z,53.60
2018-02-21T20:48:57.296Z,53.60
2018-02-21T20:51:23.921Z,53.50
2018-02-21T20:56:29.873Z,53.50
2018-02-21T20:58:56.525Z,53.40
2018-02-21T21:01:23.142Z,53.50
2018-02-21T21:03:49.774Z,53.50
2018-02-21T21:06:16.450Z,53.50
2018-02-21T21:08:43.124Z,53.30
2018-02-21T21:11:09.861Z,53.30
2018-02-21T21:13:39.174Z,53.40
2018-02-21T21:16:05.793Z,53.40
2018-02-21T21:18:32.449Z,53.40
2018-02-21T21:20:59.151Z,53.40
2018-02-21T21:23:25.804Z,53.40
2018-02-21T21:26:02.706Z,53.40
2018-02-21T21:28:29.370Z,53.50
2018-02-21T21:30:56.066Z,53.40
2018-02-21T21:33:22.697Z,53.40
2018-02-21T21:35:49.335Z,53.40
2018-02-21T21:38:15.973Z,53.40
2018-02-21T21:40:42.662Z,53.40
2018-02-21T21:43:15.191Z,53.40
2018-02-21T21:45:45.325Z,53.30
2018-02-21T21:48:15.217Z,53.40
2018-02-21T21:50:41.874Z,53.30
2018-02-21T21:53:08.498Z,53.40
2018-02-21T21:55:35.151Z,53.30
2018-02-21T21:58:01.847Z,53.30
2018-02-21T22:00:28.470Z,53.30
2018-02-21T22:02:57.296Z,53.20
2018-02-21T22:05:27.154Z,53.20
2018-02-21T22:07:53.837Z,53.30
2018-02-21T22:10:20.526Z,53.30
2018-02-21T22:12:47.158Z,53.30
2018-02-21T22:15:20.927Z,53.20
2018-02-21T22:17:47.545Z,53.20
2018-02-21T22:20:14.198Z,53.20
2018-02-21T22:22:40.845Z,53.20
2018-02-21T22:25:07.468Z,53.30
2018-02-21T22:27:34.118Z,53.30
2018-02-21T22:30:00.737Z,53.30
2018-02-21T22:32:38.873Z,53.30
2018-02-21T22:35:05.548Z,53.30
2018-02-21T22:37:32.186Z,53.30
2018-02-21T22:39:58.827Z,53.20
2018-02-21T22:42:25.861Z,53.10
2018-02-21T22:44:52.485Z,53.10
2018-02-21T22:47:21.369Z,53.00
2018-02-21T22:49:47.994Z,53.10
2018-02-21T22:52:14.651Z,53.20
2018-02-21T22:54:41.298Z,53.20
2018-02-21T22:57:07.941Z,53.20
2018-02-21T22:59:34.566Z,53.20
2018-02-21T23:02:01.217Z,53.10
2018-02-21T23:04:27.860Z,53.00
2018-02-21T23:06:54.525Z,53.10
2018-02-21T23:09:21.213Z,53.10
2018-02-21T23:11:47.840Z,53.20
2018-02-21T23:14:14.526Z,53.20
2018-02-21T23:16:41.147Z,53.00
2018-02-21T23:19:08.226Z,53.00
2018-02-21T23:21:39.363Z,53.00
2018-02-21T23:24:06.016Z,53.00
2018-02-21T23:26:32.633Z,53.00
2018-02-21T23:28:59.289Z,53.00
2018-02-21T23:31:25.897Z,53.00
2018-02-21T23:36:33.330Z,53.10
2018-02-21T23:41:39.086Z,53.10
2018-02-21T23:44:05.730Z,52.90
2018-02-21T23:46:33.379Z,53.00
2018-02-21T23:49:00.020Z,53.00
2018-02-21T23:51:26.690Z,53.00
2018-02-21T23:53:53.320Z,53.10
2018-02-21T23:56:20.001Z,53.00
2018-02-21T23:58:46.626Z,53.00
